createdAt,value
2023-04-22T00:00:00.691Z,98419.38
2023-04-22T00:02:47.263Z,98419.38
2023-04-22T00:05:34.397Z,98431.38
2023-04-22T00:08:20.911Z,98378.13
2023-04-22T00:11:07.612Z,98424.50
2023-04-22T00:13:54.401Z,98391.91
2023-04-22T00:16:41.090Z,98391.06
2023-04-22T00:19:28.248Z,98397.06
2023-04-22T00:22:14.295Z,98405.59
2023-04-22T00:25:00.430Z,98424.53
2023-04-22T00:27:46.969Z,98419.41
2023-04-22T00:30:33.843Z,98387.63
2023-04-22T00:33:20.473Z,98372.97
2023-04-22T00:36:07.037Z,98402.09
2023-04-22T00:38:54.094Z,98412.44
2023-04-22T00:41:40.716Z,98414.22
2023-04-22T00:44:28.199Z,98419.38
2023-04-22T00:47:15.138Z,98421.09
2023-04-22T00:50:02.246Z,98415.97
2023-04-22T00:52:49.218Z,98405.59
2023-04-22T00:55:36.017Z,98405.66
2023-04-22T00:58:27.455Z,98415.94
2023-04-22T01:01:14.295Z,98385.06
2023-04-22T01:04:01.532Z,98416.81
2023-04-22T01:06:48.664Z,98393.66
2023-04-22T01:09:35.486Z,98337.09
2023-04-22T01:12:22.091Z,98387.69
2023-04-22T01:15:08.880Z,98398.78
2023-04-22T01:17:55.301Z,98366.25
2023-04-22T01:20:41.986Z,98395.44
2023-04-22T01:23:28.935Z,98399.72
2023-04-22T01:26:15.266Z,98411.72
2023-04-22T01:29:02.371Z,98400.63
2023-04-22T01:31:49.444Z,98413.47
2023-04-22T01:34:37.018Z,98408.34
2023-04-22T01:37:23.397Z,98415.22
2023-04-22T01:40:11.064Z,98414.31
2023-04-22T01:42:59.267Z,98386.88
2023-04-22T01:45:46.035Z,98398.91
2023-04-22T01:48:32.554Z,98341.41
2023-04-22T01:51:23.667Z,98364.56
2023-04-22T01:54:10.878Z,98426.38
2023-04-22T01:56:58.515Z,98386.06
2023-04-22T01:59:45.095Z,98389.50
2023-04-22T02:02:31.540Z,98429.81
2023-04-22T02:05:18.038Z,98423.00
2023-04-22T02:08:06.202Z,98413.56
2023-04-22T02:10:52.724Z,98371.47
2023-04-22T02:13:40.408Z,98430.69
2023-04-22T02:16:28.362Z,98404.94
2023-04-22T02:19:15.916Z,98429.00
2023-04-22T02:22:02.152Z,98399.84
2023-04-22T02:24:51.118Z,98398.13
2023-04-22T02:27:38.080Z,98398.97
2023-04-22T02:30:25.771Z,98387.81
2023-04-22T02:33:13.216Z,98434.19
2023-04-22T02:35:59.718Z,98401.53
2023-04-22T02:38:46.838Z,98426.44
2023-04-22T02:41:34.490Z,98390.41
2023-04-22T02:44:21.033Z,98412.72
2023-04-22T02:47:07.835Z,98409.31
2023-04-22T02:49:54.386Z,98392.13
2023-04-22T02:52:40.784Z,98434.16
2023-04-22T02:55:28.481Z,98417.00
2023-04-22T02:58:15.133Z,98402.41
2023-04-22T03:01:01.772Z,98431.63
2023-04-22T03:03:48.640Z,98421.31
2023-04-22T03:06:41.319Z,98415.31
2023-04-22T03:09:27.823Z,98366.38
2023-04-22T03:12:14.093Z,98365.53
2023-04-22T03:15:00.786Z,98416.16
2023-04-22T03:17:50.608Z,98394.69
2023-04-22T03:20:39.320Z,98413.59
2023-04-22T03:23:25.508Z,98412.72
2023-04-22T03:26:12.054Z,98409.28
2023-04-22T03:28:59.443Z,98418.72
2023-04-22T03:31:45.851Z,98386.06
2023-04-22T03:34:33.329Z,98392.94
2023-04-22T03:37:20.477Z,98420.41
2023-04-22T03:40:07.981Z,98443.56
2023-04-22T03:42:54.465Z,98446.13
2023-04-22T03:45:42.092Z,98395.44
2023-04-22T03:48:39.933Z,98406.56
2023-04-22T03:51:35.827Z,98410.00
2023-04-22T03:54:27.508Z,98446.03
2023-04-22T03:57:15.878Z,98424.56
2023-04-22T04:00:02.821Z,98415.97
2023-04-22T04:02:49.885Z,98408.22
2023-04-22T04:05:38.666Z,98430.59
2023-04-22T04:08:25.762Z,98426.28
2023-04-22T04:11:12.229Z,98403.94
2023-04-22T04:13:58.757Z,98423.66
2023-04-22T04:16:49.892Z,98386.75
2023-04-22T04:19:44.778Z,98405.63
2023-04-22T04:22:31.515Z,98425.41
2023-04-22T04:25:21.994Z,98434.81
2023-04-22T04:28:11.344Z,98427.09
2023-04-22T04:30:58.350Z,98421.94
2023-04-22T04:33:44.682Z,98404.78
2023-04-22T04:36:33.002Z,98414.25
2023-04-22T04:39:32.986Z,98379.03
2023-04-22T04:42:21.686Z,98411.66
2023-04-22T04:45:14.027Z,98422.03
2023-04-22T04:48:02.710Z,98409.19
2023-04-22T04:50:56.764Z,98396.31
2023-04-22T04:53:46.333Z,98419.50
2023-04-22T04:56:33.227Z,98395.47
2023-04-22T04:59:20.270Z,98425.50
2023-04-22T05:02:07.620Z,98413.53
2023-04-22T05:04:54.867Z,98420.44
2023-04-22T05:07:41.976Z,98384.38
2023-04-22T05:10:29.840Z,98405.84
2023-04-22T05:13:17.355Z,98391.22
2023-04-22T05:16:06.373Z,98388.63
2023-04-22T05:18:52.703Z,98413.56
2023-04-22T05:21:39.052Z,98421.28
2023-04-22T05:24:26.365Z,98430.72
2023-04-22T05:27:13.417Z,98425.59
2023-04-22T05:30:00.208Z,98422.13
2023-04-22T05:32:50.492Z,98423.00
2023-04-22T05:35:36.792Z,98438.47
2023-04-22T05:38:23.584Z,98423.88
2023-04-22T05:41:10.471Z,98435.03
2023-04-22T05:43:57.181Z,98423.00
2023-04-22T05:46:44.483Z,98430.75
2023-04-22T05:49:31.022Z,98409.28
2023-04-22T05:52:34.624Z,98423.00
2023-04-22T05:55:27.894Z,98433.31
2023-04-22T05:58:14.557Z,98418.69
2023-04-22T06:01:13.901Z,98421.25
2023-04-22T06:04:12.641Z,98403.25
2023-04-22T06:07:00.046Z,98416.06
2023-04-22T06:09:46.609Z,98423.72
2023-04-22T06:12:35.524Z,98416.84
2023-04-22T06:15:22.066Z,98446.03
2023-04-22T06:18:09.761Z,98437.31
2023-04-22T06:20:57.230Z,98446.69
2023-04-22T06:23:44.654Z,98441.31
2023-04-22T06:26:30.960Z,98447.22
2023-04-22T06:29:17.858Z,98437.66
2023-04-22T06:32:04.620Z,98418.75
2023-04-22T06:34:53.518Z,98439.19
2023-04-22T06:37:40.250Z,98422.06
2023-04-22T06:40:28.047Z,98444.31
2023-04-22T06:43:17.160Z,98452.88
2023-04-22T06:46:40.157Z,98451.03
2023-04-22T06:49:50.445Z,98439.91
2023-04-22T06:52:45.268Z,98430.31
2023-04-22T06:55:31.846Z,98452.59
2023-04-22T06:58:18.088Z,98445.56
2023-04-22T07:01:05.039Z,98459.28
2023-04-22T07:03:51.604Z,98414.50
2023-04-22T07:06:40.668Z,98448.63
2023-04-22T07:09:29.000Z,98430.34
2023-04-22T07:12:16.223Z,98388.97
2023-04-22T07:15:02.586Z,98404.81
2023-04-22T07:17:48.880Z,98427.25
2023-04-22T07:20:35.561Z,98426.06
2023-04-22T07:23:22.153Z,98418.91
2023-04-22T07:26:08.865Z,98383.22
2023-04-22T07:28:55.184Z,98413.56
2023-04-22T07:31:41.945Z,98392.38
2023-04-22T07:34:28.413Z,98395.78
2023-04-22T07:37:15.904Z,98402.56
2023-04-22T07:40:02.759Z,98402.22
2023-04-22T07:42:49.328Z,98387.44
2023-04-22T07:45:35.814Z,98423.53
2023-04-22T07:48:22.997Z,98436.06
2023-04-22T07:51:09.175Z,98421.59
2023-04-22T07:53:55.893Z,98415.06
2023-04-22T07:56:42.334Z,98383.25
2023-04-22T07:59:28.759Z,98445.72
2023-04-22T08:02:15.404Z,98438.09
2023-04-22T08:05:04.810Z,98423.41
2023-04-22T08:07:51.540Z,98350.81
2023-04-22T08:10:38.132Z,98413.59
2023-04-22T08:13:24.735Z,98389.63
2023-04-22T08:16:11.204Z,98439.44
2023-04-22T08:18:57.807Z,98395.91
2023-04-22T08:21:44.718Z,98430.94
2023-04-22T08:24:31.432Z,98435.84
2023-04-22T08:27:19.374Z,98434.44
2023-04-22T08:30:07.299Z,98421.53
2023-04-22T08:32:53.987Z,98417.50
2023-04-22T08:35:40.551Z,98397.97
2023-04-22T08:38:27.049Z,98394.41
2023-04-22T08:41:16.352Z,98419.84
2023-04-22T08:44:03.226Z,98413.78
2023-04-22T08:46:51.061Z,98389.94
2023-04-22T08:49:37.818Z,98364.53
2023-04-22T08:52:24.489Z,98417.88
2023-04-22T08:55:10.926Z,98391.06
2023-04-22T08:58:01.803Z,98402.75
2023-04-22T09:00:48.421Z,98377.44
2023-04-22T09:03:40.373Z,98404.13
2023-04-22T09:06:27.569Z,98411.34
2023-04-22T09:09:14.699Z,98401.31
2023-04-22T09:12:01.296Z,98396.94
2023-04-22T09:14:47.838Z,98361.44
2023-04-22T09:17:37.273Z,98358.59
2023-04-22T09:20:28.342Z,98360.44
2023-04-22T09:23:15.163Z,98361.50
2023-04-22T09:26:02.175Z,98359.38
2023-04-22T09:28:50.618Z,98362.25
2023-04-22T09:31:40.856Z,98342.44
2023-04-22T09:34:27.967Z,98344.41
2023-04-22T09:37:14.634Z,98345.69
2023-04-22T09:40:00.774Z,98360.47
2023-04-22T09:42:53.077Z,98368.13
2023-04-22T09:45:41.630Z,98374.56
2023-04-22T09:48:28.306Z,98348.34
2023-04-22T09:51:16.957Z,98333.97
2023-04-22T09:54:09.791Z,98343.84
2023-04-22T09:56:56.827Z,98331.09
2023-04-22T09:59:43.552Z,98297.44
2023-04-22T10:02:30.430Z,98335.44
2023-04-22T10:05:17.980Z,98343.38
2023-04-22T10:08:09.429Z,98284.66
2023-04-22T10:10:55.912Z,98302.38
2023-04-22T10:13:42.031Z,98312.31
2023-04-22T10:16:32.250Z,98315.03
2023-04-22T10:19:21.706Z,98334.91
2023-04-22T10:22:11.067Z,98302.13
2023-04-22T10:24:58.324Z,98332.09
2023-04-22T10:27:53.506Z,98334.75
2023-04-22T10:30:40.249Z,98310.94
2023-04-22T10:33:31.870Z,98327.88
2023-04-22T10:36:20.347Z,98302.31
2023-04-22T10:41:57.980Z,98311.81
2023-04-22T10:44:53.920Z,98289.16
2023-04-22T10:47:41.861Z,98296.63
2023-04-22T10:50:32.056Z,98309.16
2023-04-22T10:53:38.651Z,98298.22
2023-04-22T10:56:28.212Z,98299.44
2023-04-22T10:59:17.976Z,98295.84
2023-04-22T11:02:08.682Z,98257.00
2023-04-22T11:05:19.982Z,98298.66
2023-04-22T11:08:13.227Z,98259.31
2023-04-22T11:11:08.982Z,98255.47
2023-04-22T11:13:55.662Z,98274.88
2023-04-22T11:16:46.946Z,98287.91
2023-04-22T11:19:33.835Z,98264.72
2023-04-22T11:22:20.295Z,98284.50
2023-04-22T11:25:09.206Z,98286.97
2023-04-22T11:27:57.130Z,98273.75
2023-04-22T11:30:44.820Z,98256.53
2023-04-22T11:33:34.581Z,98285.09
2023-04-22T11:36:23.669Z,98265.75
2023-04-22T11:39:11.117Z,98260.09
2023-04-22T11:41:58.211Z,98237.13
2023-04-22T11:44:44.894Z,98264.19
2023-04-22T11:47:31.813Z,98280.91
2023-04-22T11:50:22.462Z,98266.09
2023-04-22T11:53:24.001Z,98281.97
2023-04-22T11:56:10.531Z,98264.81
2023-04-22T11:58:57.468Z,98249.13
2023-04-22T12:01:44.628Z,98273.31
2023-04-22T12:04:37.106Z,98288.19
2023-04-22T12:07:23.497Z,98260.94
2023-04-22T12:10:10.835Z,98259.06
2023-04-22T12:12:57.520Z,98264.56
2023-04-22T12:15:44.617Z,98288.91
2023-04-22T12:18:37.115Z,98267.78
2023-04-22T12:21:26.061Z,98289.31
2023-04-22T12:24:12.686Z,98287.44
2023-04-22T12:26:59.328Z,98286.13
2023-04-22T12:29:54.734Z,98256.34
2023-04-22T12:32:41.153Z,98289.72
2023-04-22T12:35:29.923Z,98275.56
2023-04-22T12:38:16.415Z,98280.81
2023-04-22T12:41:04.548Z,98277.50
2023-04-22T12:43:52.363Z,98304.91
2023-04-22T12:46:38.881Z,98272.38
2023-04-22T12:49:25.911Z,98280.63
2023-04-22T12:52:12.088Z,98311.22
2023-04-22T12:54:58.303Z,98292.03
2023-04-22T12:57:46.496Z,98319.09
2023-04-22T13:00:33.303Z,98298.59
2023-04-22T13:03:20.044Z,98298.09
2023-04-22T13:06:06.684Z,98280.63
2023-04-22T13:08:52.868Z,98302.56
2023-04-22T13:11:39.271Z,98298.09
2023-04-22T13:14:25.642Z,98331.31
2023-04-22T13:17:11.932Z,98315.22
2023-04-22T13:19:58.292Z,98289.38
2023-04-22T13:22:45.006Z,98299.97
2023-04-22T13:25:31.356Z,98307.03
2023-04-22T13:28:18.803Z,98298.81
2023-04-22T13:31:05.131Z,98311.94
2023-04-22T13:33:51.793Z,98294.03
2023-04-22T13:36:38.410Z,98294.88
2023-04-22T13:39:25.495Z,98293.06
2023-04-22T13:42:12.592Z,98276.72
2023-04-22T13:44:58.931Z,98300.97
2023-04-22T13:47:45.278Z,98259.94
2023-04-22T13:50:31.957Z,98253.97
2023-04-22T13:53:18.222Z,98267.16
2023-04-22T13:56:06.288Z,98276.22
2023-04-22T13:58:54.239Z,98246.44
2023-04-22T14:01:43.293Z,98270.66
2023-04-22T14:04:29.873Z,98261.31
2023-04-22T14:07:16.530Z,98273.47
2023-04-22T14:10:02.806Z,98257.97
2023-04-22T14:12:49.516Z,98245.84
2023-04-22T14:15:36.130Z,98265.81
2023-04-22T14:18:23.238Z,98250.56
2023-04-22T14:21:09.944Z,98259.94
2023-04-22T14:23:56.173Z,98238.25
2023-04-22T14:26:42.766Z,98278.78
2023-04-22T14:29:30.036Z,98276.13
2023-04-22T14:32:18.580Z,98240.19
2023-04-22T14:35:05.502Z,98251.84
2023-04-22T14:37:52.009Z,98277.66
2023-04-22T14:40:38.455Z,98247.72
2023-04-22T14:43:25.153Z,98274.25
2023-04-22T14:46:11.461Z,98265.94
2023-04-22T14:48:58.270Z,98261.88
2023-04-22T14:51:46.436Z,98236.91
2023-04-22T14:54:32.856Z,98220.03
2023-04-22T14:57:19.334Z,98267.97
2023-04-22T15:00:08.161Z,98262.22
2023-04-22T15:02:55.718Z,98243.13
2023-04-22T15:05:43.075Z,98251.56
2023-04-22T15:08:29.789Z,98250.34
2023-04-22T15:11:15.953Z,98257.41
2023-04-22T15:14:02.132Z,98259.31
2023-04-22T15:16:48.460Z,98255.03
2023-04-22T15:19:34.868Z,98256.72
2023-04-22T15:22:21.095Z,98252.47
2023-04-22T15:25:09.715Z,98220.66
2023-04-22T15:27:56.919Z,98219.72
2023-04-22T15:30:43.950Z,98254.03
2023-04-22T15:33:30.577Z,98237.53
2023-04-22T15:36:19.829Z,98249.97
2023-04-22T15:39:06.428Z,98254.44
2023-04-22T15:41:52.963Z,98257.41
2023-04-22T15:44:40.697Z,98257.31
2023-04-22T15:47:29.245Z,98260.66
2023-04-22T15:50:16.430Z,98234.81
2023-04-22T15:53:02.622Z,98271.53
2023-04-22T15:55:48.906Z,98220.63
2023-04-22T15:58:35.209Z,98242.63
2023-04-22T16:01:21.931Z,98231.69
2023-04-22T16:04:08.745Z,98227.28
2023-04-22T16:06:57.382Z,98274.25
2023-04-22T16:09:43.999Z,98273.22
2023-04-22T16:12:32.753Z,98211.78
2023-04-22T16:15:23.162Z,98278.06
2023-04-22T16:18:10.130Z,98231.63
2023-04-22T16:20:56.693Z,98241.97
2023-04-22T16:23:43.362Z,98288.09
2023-04-22T16:26:29.817Z,98255.56
2023-04-22T16:29:16.390Z,98230.75
2023-04-22T16:32:05.957Z,98264.38
2023-04-22T16:34:52.637Z,98253.41
2023-04-22T16:37:39.171Z,98264.53
2023-04-22T16:40:25.975Z,98246.38
2023-04-22T16:43:12.984Z,98281.75
2023-04-22T16:45:59.645Z,98278.53
2023-04-22T16:48:45.974Z,98268.91
2023-04-22T16:51:33.575Z,98270.28
2023-04-22T16:54:20.095Z,98284.31
2023-04-22T16:57:08.137Z,98238.03
2023-04-22T16:59:54.674Z,98266.78
2023-04-22T17:02:41.304Z,98241.16
2023-04-22T17:05:28.018Z,98256.38
2023-04-22T17:08:14.852Z,98280.91
2023-04-22T17:11:01.128Z,98281.53
2023-04-22T17:13:47.349Z,98299.91
2023-04-22T17:16:34.980Z,98309.41
2023-04-22T17:19:21.414Z,98298.50
2023-04-22T17:22:07.781Z,98292.16
2023-04-22T17:24:56.715Z,98246.75
2023-04-22T17:27:42.887Z,98293.59
2023-04-22T17:30:30.641Z,98268.81
2023-04-22T17:33:17.014Z,98285.03
2023-04-22T17:36:04.023Z,98302.31
2023-04-22T17:38:52.745Z,98305.09
2023-04-22T17:41:39.069Z,98309.06
2023-04-22T17:44:26.200Z,98322.34
2023-04-22T17:47:12.782Z,98282.66
2023-04-22T17:49:59.553Z,98318.94
2023-04-22T17:52:46.050Z,98304.13
2023-04-22T17:55:35.474Z,98293.28
2023-04-22T17:58:21.480Z,98290.19
2023-04-22T18:01:08.405Z,98305.16
2023-04-22T18:03:56.413Z,98308.72
2023-04-22T18:06:43.192Z,98346.25
2023-04-22T18:09:29.671Z,98318.91
2023-04-22T18:12:16.455Z,98326.63
2023-04-22T18:15:05.657Z,98334.28
2023-04-22T18:17:52.123Z,98359.09
2023-04-22T18:20:38.897Z,98338.91
2023-04-22T18:23:25.152Z,98344.66
2023-04-22T18:26:12.874Z,98374.34
2023-04-22T18:28:59.728Z,98345.47
2023-04-22T18:31:45.906Z,98349.44
2023-04-22T18:34:32.645Z,98393.63
2023-04-22T18:37:19.143Z,98384.72
2023-04-22T18:40:06.365Z,98392.13
2023-04-22T18:42:53.991Z,98412.81
2023-04-22T18:45:40.397Z,98424.63
2023-04-22T18:48:26.899Z,98392.66
2023-04-22T18:51:13.578Z,98387.38
2023-04-22T18:54:00.247Z,98392.28
2023-04-22T18:56:46.595Z,98412.81
2023-04-22T18:59:32.982Z,98438.69
2023-04-22T19:02:19.318Z,98444.53
2023-04-22T19:05:06.545Z,98434.59
2023-04-22T19:07:53.723Z,98445.16
2023-04-22T19:10:40.144Z,98453.00
2023-04-22T19:13:29.832Z,98443.50
2023-04-22T19:16:16.706Z,98426.78
2023-04-22T19:19:04.367Z,98414.44
2023-04-22T19:21:51.120Z,98449.16
2023-04-22T19:24:37.565Z,98385.88
2023-04-22T19:27:23.983Z,98431.69
2023-04-22T19:30:11.418Z,98385.50
2023-04-22T19:32:57.845Z,98392.03
2023-04-22T19:35:44.529Z,98414.69
2023-04-22T19:38:31.361Z,98422.47
2023-04-22T19:41:18.008Z,98419.97
2023-04-22T19:44:04.862Z,98411.72
2023-04-22T19:46:52.267Z,98385.31
2023-04-22T19:49:41.025Z,98413.78
2023-04-22T19:52:28.905Z,98423.72
2023-04-22T19:55:15.823Z,98409.75
2023-04-22T19:58:04.206Z,98441.88
2023-04-22T20:00:51.009Z,98440.25
2023-04-22T20:03:38.700Z,98396.84
2023-04-22T20:06:25.943Z,98440.13
2023-04-22T20:09:15.025Z,98409.44
2023-04-22T20:12:02.978Z,98391.19
2023-04-22T20:14:49.443Z,98426.28
2023-04-22T20:17:39.187Z,98412.38
2023-04-22T20:20:25.711Z,98421.97
2023-04-22T20:23:14.378Z,98383.66
2023-04-22T20:26:02.140Z,98357.06
2023-04-22T20:28:51.927Z,98387.03
2023-04-22T20:31:40.172Z,98375.06
2023-04-22T20:34:27.087Z,98347.50
2023-04-22T20:37:15.989Z,98371.75
2023-04-22T20:40:04.886Z,98342.72
2023-04-22T20:42:51.611Z,98394.34
2023-04-22T20:45:38.041Z,98402.25
2023-04-22T20:48:24.671Z,98398.91
2023-04-22T20:51:12.629Z,98416.44
2023-04-22T20:54:00.221Z,98389.34
2023-04-22T20:56:47.336Z,98410.72
2023-04-22T20:59:34.845Z,98426.09
2023-04-22T21:02:22.539Z,98392.66
2023-04-22T21:05:11.099Z,98425.97
2023-04-22T21:08:00.050Z,98389.22
2023-04-22T21:10:46.903Z,98418.19
2023-04-22T21:13:33.672Z,98389.03
2023-04-22T21:16:23.865Z,98405.31
2023-04-22T21:19:11.097Z,98396.84
2023-04-22T21:22:00.784Z,98403.69
2023-04-22T21:24:51.897Z,98401.94
2023-04-22T21:27:38.418Z,98383.19
2023-04-22T21:30:25.899Z,98373.28
2023-04-22T21:33:13.095Z,98431.47
2023-04-22T21:35:59.933Z,98431.38
2023-04-22T21:38:46.985Z,98440.19
2023-04-22T21:41:35.186Z,98390.72
2023-04-22T21:44:21.893Z,98438.47
2023-04-22T21:47:09.060Z,98409.25
2023-04-22T21:49:55.578Z,98428.22
2023-04-22T21:52:42.519Z,98430.09
2023-04-22T21:55:28.966Z,98431.78
2023-04-22T21:58:15.655Z,98425.94
2023-04-22T22:01:02.078Z,98406.28
2023-04-22T22:03:48.593Z,98430.41
2023-04-22T22:06:35.021Z,98378.31
2023-04-22T22:09:21.709Z,98423.75
2023-04-22T22:12:10.618Z,98409.28
2023-04-22T22:14:57.476Z,98417.13
2023-04-22T22:17:44.508Z,98423.41
2023-04-22T22:20:30.986Z,98415.69
2023-04-22T22:23:18.970Z,98378.13
2023-04-22T22:26:08.370Z,98430.41
2023-04-22T22:28:55.355Z,98406.38
2023-04-22T22:31:43.598Z,98420.97
2023-04-22T22:34:29.842Z,98415.72
2023-04-22T22:37:16.568Z,98428.66
2023-04-22T22:40:04.159Z,98432.09
2023-04-22T22:42:50.670Z,98426.00
2023-04-22T22:45:37.048Z,98396.06
2023-04-22T22:48:23.593Z,98410.63
2023-04-22T22:51:14.542Z,98397.81
2023-04-22T22:54:02.221Z,98407.28
2023-04-22T22:56:50.628Z,98385.03
2023-04-22T22:59:38.720Z,98380.78
2023-04-22T23:02:25.685Z,98373.94
2023-04-22T23:05:12.979Z,98402.25
2023-04-22T23:07:59.296Z,98421.09
2023-04-22T23:10:45.704Z,98385.25
2023-04-22T23:13:32.318Z,98390.38
2023-04-22T23:16:18.624Z,98393.06
2023-04-22T23:19:06.601Z,98424.00
2023-04-22T23:21:54.858Z,98403.38
2023-04-22T23:24:41.926Z,98387.06
2023-04-22T23:27:30.411Z,98344.38
2023-04-22T23:30:17.050Z,98401.78
2023-04-22T23:33:04.520Z,98358.09
2023-04-22T23:35:58.974Z,98407.81
2023-04-22T23:38:46.038Z,98394.09
2023-04-22T23:41:33.037Z,98376.13
2023-04-22T23:44:19.638Z,98365.03
2023-04-22T23:47:06.431Z,98378.56
2023-04-22T23:49:52.948Z,98408.53
2023-04-22T23:52:41.434Z,98414.47
2023-04-22T23:55:29.244Z,98337.34
2023-04-22T23:58:15.860Z,98413.63
